createdAt,value
2018-06-21T00:00:02.393Z,999.82
2018-06-21T00:01:02.408Z,999.79
2018-06-21T00:02:02.399Z,999.83
2018-06-21T00:03:02.410Z,999.80
2018-06-21T00:04:02.409Z,999.75
2018-06-21T00:05:02.411Z,999.81
2018-06-21T00:06:02.418Z,999.81
2018-06-21T00:07:02.422Z,999.83
2018-06-21T00:08:02.423Z,999.80
2018-06-21T00:09:02.426Z,999.79
2018-06-21T00:10:02.456Z,999.76
2018-06-21T00:11:02.434Z,999.75
2018-06-21T00:12:02.440Z,999.76
2018-06-21T00:13:02.441Z,999.79
2018-06-21T00:14:02.445Z,999.76
2018-06-21T00:15:02.450Z,999.73
2018-06-21T00:16:02.455Z,999.72
2018-06-21T00:17:02.456Z,999.70
2018-06-21T00:18:02.459Z,999.74
2018-06-21T00:19:02.466Z,999.72
2018-06-21T00:20:02.469Z,999.72
2018-06-21T00:21:02.472Z,999.71
2018-06-21T00:22:02.476Z,999.72
2018-06-21T00:23:02.477Z,999.74
2018-06-21T00:24:02.482Z,999.71
2018-06-21T00:25:02.487Z,999.70
2018-06-21T00:26:02.492Z,999.69
2018-06-21T00:27:02.493Z,999.66
2018-06-21T00:28:02.495Z,999.70
2018-06-21T00:29:02.499Z,999.72
2018-06-21T00:30:02.504Z,999.75
2018-06-21T00:31:02.507Z,999.74
2018-06-21T00:32:02.510Z,999.72
2018-06-21T00:33:02.516Z,999.72
2018-06-21T00:34:02.517Z,999.71
2018-06-21T00:35:02.520Z,999.71
2018-06-21T00:36:02.524Z,999.70
2018-06-21T00:37:02.528Z,999.67
2018-06-21T00:38:02.530Z,999.66
2018-06-21T00:39:02.536Z,999.61
2018-06-21T00:40:02.538Z,999.62
2018-06-21T00:41:02.540Z,999.62
2018-06-21T00:42:02.543Z,999.64
2018-06-21T00:43:02.549Z,999.60
2018-06-21T00:44:02.549Z,999.61
2018-06-21T00:45:02.552Z,999.63
2018-06-21T00:46:02.557Z,999.62
2018-06-21T00:47:02.559Z,999.61
2018-06-21T00:48:02.564Z,999.58
2018-06-21T00:49:02.567Z,999.54
2018-06-21T00:50:02.569Z,999.55
2018-06-21T00:51:02.579Z,999.53
2018-06-21T00:52:02.576Z,999.52
2018-06-21T00:53:02.580Z,999.49
2018-06-21T00:54:02.583Z,999.47
2018-06-21T00:55:02.589Z,999.43
2018-06-21T00:56:02.592Z,999.46
2018-06-21T00:57:02.602Z,999.48
2018-06-21T00:58:02.596Z,999.46
2018-06-21T00:59:02.600Z,999.49
2018-06-21T01:00:02.610Z,999.48
2018-06-21T01:01:02.605Z,999.51
2018-06-21T01:02:02.610Z,999.51
2018-06-21T01:03:02.613Z,999.53
2018-06-21T01:04:02.616Z,999.45
2018-06-21T01:05:02.620Z,999.43
2018-06-21T01:06:02.624Z,999.43
2018-06-21T01:07:02.624Z,999.39
2018-06-21T01:08:02.628Z,999.42
2018-06-21T01:09:02.643Z,999.41
2018-06-21T01:10:02.634Z,999.37
2018-06-21T01:11:02.638Z,999.38
2018-06-21T01:12:02.643Z,999.38
2018-06-21T01:13:02.643Z,999.31
2018-06-21T01:14:02.646Z,999.36
2018-06-21T01:15:02.650Z,999.29
2018-06-21T01:16:02.652Z,999.33
2018-06-21T01:17:02.637Z,999.31
2018-06-21T01:18:02.639Z,999.30
2018-06-21T01:19:02.642Z,999.28
2018-06-21T01:20:02.645Z,999.28
2018-06-21T01:21:02.668Z,999.25
2018-06-21T01:22:02.664Z,999.25
2018-06-21T01:23:02.658Z,999.26
2018-06-21T01:24:02.659Z,999.24
2018-06-21T01:25:02.659Z,999.22
2018-06-21T01:26:02.663Z,999.21
2018-06-21T01:27:02.666Z,999.21
2018-06-21T01:28:02.668Z,999.18
2018-06-21T01:29:02.675Z,999.19
2018-06-21T01:30:02.681Z,999.18
2018-06-21T01:31:02.678Z,999.22
2018-06-21T01:32:02.680Z,999.17
2018-06-21T01:33:02.682Z,999.20
2018-06-21T01:34:02.689Z,999.21
2018-06-21T01:35:02.689Z,999.21
2018-06-21T01:36:02.693Z,999.18
2018-06-21T01:37:02.695Z,999.16
2018-06-21T01:38:02.701Z,999.13
2018-06-21T01:39:04.415Z,999.09
2018-06-21T01:40:02.703Z,999.12
2018-06-21T01:41:02.708Z,999.06
2018-06-21T01:42:02.709Z,999.01
2018-06-21T01:43:02.717Z,999.00
2018-06-21T01:44:02.717Z,999.03
2018-06-21T01:45:02.717Z,999.01
2018-06-21T01:46:02.720Z,999.05
2018-06-21T01:47:02.724Z,999.05
2018-06-21T01:48:02.727Z,998.99
2018-06-21T01:49:02.727Z,999.04
2018-06-21T01:50:02.732Z,999.00
2018-06-21T01:51:02.737Z,999.03
2018-06-21T01:52:02.738Z,999.01
2018-06-21T01:53:02.738Z,999.03
2018-06-21T01:54:02.746Z,998.97
2018-06-21T01:55:02.749Z,998.98
2018-06-21T01:56:02.747Z,998.97
2018-06-21T01:57:02.749Z,998.93
2018-06-21T01:58:02.754Z,998.91
2018-06-21T01:59:02.757Z,998.91
2018-06-21T02:00:02.759Z,998.86
2018-06-21T02:01:02.763Z,998.94
2018-06-21T02:02:02.765Z,998.88
2018-06-21T02:03:02.766Z,998.89
2018-06-21T02:04:02.770Z,998.88
2018-06-21T02:05:02.772Z,998.87
2018-06-21T02:06:02.828Z,998.86
2018-06-21T02:07:02.780Z,998.84
2018-06-21T02:08:02.827Z,998.85
2018-06-21T02:09:02.782Z,998.91
2018-06-21T02:10:02.788Z,998.87
2018-06-21T02:11:02.789Z,998.87
2018-06-21T02:12:02.793Z,998.88
2018-06-21T02:13:02.794Z,998.90
2018-06-21T02:14:02.800Z,998.88
2018-06-21T02:15:02.801Z,998.90
2018-06-21T02:16:02.803Z,998.88
2018-06-21T02:17:02.811Z,998.83
2018-06-21T02:18:02.808Z,998.83
2018-06-21T02:19:02.810Z,998.78
2018-06-21T02:20:02.813Z,998.79
2018-06-21T02:21:02.818Z,998.81
2018-06-21T02:22:02.821Z,998.82
2018-06-21T02:23:02.820Z,998.79
2018-06-21T02:24:02.825Z,998.78
2018-06-21T02:25:02.833Z,998.76
2018-06-21T02:26:02.829Z,998.72
2018-06-21T02:27:02.832Z,998.73
2018-06-21T02:28:02.845Z,998.71
2018-06-21T02:29:02.840Z,998.76
2018-06-21T02:30:02.841Z,998.70
2018-06-21T02:31:02.843Z,998.69
2018-06-21T02:32:02.848Z,998.68
2018-06-21T02:33:02.849Z,998.67
2018-06-21T02:34:02.854Z,998.65
2018-06-21T02:35:02.853Z,998.61
2018-06-21T02:36:02.859Z,998.65
2018-06-21T02:37:02.858Z,998.63
2018-06-21T02:38:02.860Z,998.63
2018-06-21T02:39:02.864Z,998.57
2018-06-21T02:40:02.868Z,998.59
2018-06-21T02:41:02.871Z,998.58
2018-06-21T02:42:02.875Z,998.57
2018-06-21T02:43:02.873Z,998.54
2018-06-21T02:44:02.875Z,998.54
2018-06-21T02:45:02.878Z,998.53
2018-06-21T02:46:02.881Z,998.49
2018-06-21T02:47:02.884Z,998.54
2018-06-21T02:48:02.885Z,998.47
2018-06-21T02:49:02.889Z,998.46
2018-06-21T02:50:02.894Z,998.52
2018-06-21T02:51:02.893Z,998.44
2018-06-21T02:52:02.897Z,998.43
2018-06-21T02:53:02.920Z,998.40
2018-06-21T02:54:02.901Z,998.39
2018-06-21T02:55:02.904Z,998.39
2018-06-21T02:56:02.907Z,998.34
2018-06-21T02:57:02.909Z,998.36
2018-06-21T02:58:02.909Z,998.33
2018-06-21T02:59:02.912Z,998.33
2018-06-21T03:00:02.916Z,998.33
2018-06-21T03:01:02.919Z,998.32
2018-06-21T03:02:02.925Z,998.29
2018-06-21T03:03:02.921Z,998.32
2018-06-21T03:04:02.934Z,998.29
2018-06-21T03:05:02.928Z,998.26
2018-06-21T03:06:02.938Z,998.25
2018-06-21T03:07:02.931Z,998.26
2018-06-21T03:08:02.934Z,998.25
2018-06-21T03:09:02.935Z,998.29
2018-06-21T03:10:02.938Z,998.26
2018-06-21T03:11:02.940Z,998.25
2018-06-21T03:12:02.944Z,998.27
2018-06-21T03:13:02.944Z,998.21
2018-06-21T03:14:02.952Z,998.23
2018-06-21T03:15:02.952Z,998.23
2018-06-21T03:16:02.956Z,998.21
2018-06-21T03:17:02.959Z,998.17
2018-06-21T03:18:38.703Z,998.17
2018-06-21T03:19:02.961Z,998.13
2018-06-21T03:20:02.964Z,998.11
2018-06-21T03:21:02.964Z,998.10
2018-06-21T03:22:02.980Z,998.11
2018-06-21T03:23:02.969Z,998.07
2018-06-21T03:24:02.973Z,998.05
2018-06-21T03:25:03.008Z,998.09
2018-06-21T03:26:02.979Z,998.05
2018-06-21T03:27:02.981Z,998.05
2018-06-21T03:28:02.981Z,998.05
2018-06-21T03:29:02.985Z,998.01
2018-06-21T03:30:02.988Z,997.99
2018-06-21T03:31:02.989Z,997.97
2018-06-21T03:32:02.991Z,997.93
2018-06-21T03:33:02.992Z,997.91
2018-06-21T03:34:02.993Z,997.91
2018-06-21T03:35:02.997Z,997.91
2018-06-21T03:36:03.000Z,997.92
2018-06-21T03:37:03.000Z,997.93
2018-06-21T03:38:03.003Z,997.89
2018-06-21T03:39:03.008Z,997.89
2018-06-21T03:40:03.009Z,997.90
2018-06-21T03:41:03.010Z,997.89
2018-06-21T03:42:03.013Z,997.85
2018-06-21T03:43:03.016Z,997.84
2018-06-21T03:44:03.018Z,997.87
2018-06-21T03:45:03.019Z,997.84
2018-06-21T03:46:03.024Z,997.84
2018-06-21T03:47:03.025Z,997.80
2018-06-21T03:48:03.030Z,997.77
2018-06-21T03:49:03.033Z,997.79
2018-06-21T03:50:03.034Z,997.74
2018-06-21T03:51:03.034Z,997.73
2018-06-21T03:52:03.037Z,997.72
2018-06-21T03:53:03.037Z,997.74
2018-06-21T03:54:03.041Z,997.74
2018-06-21T03:55:03.044Z,997.69
2018-06-21T03:56:03.046Z,997.71
2018-06-21T03:57:03.047Z,997.72
2018-06-21T03:58:03.050Z,997.71
2018-06-21T03:59:03.053Z,997.70
2018-06-21T04:00:03.055Z,997.72
2018-06-21T04:01:03.057Z,997.68
2018-06-21T04:02:03.063Z,997.69
2018-06-21T04:03:03.079Z,997.69
2018-06-21T04:04:03.065Z,997.66
2018-06-21T04:05:03.066Z,997.68
2018-06-21T04:06:03.069Z,997.68
2018-06-21T04:07:03.071Z,997.66
2018-06-21T04:08:03.073Z,997.67
2018-06-21T04:09:03.077Z,997.66
2018-06-21T04:10:03.078Z,997.61
2018-06-21T04:11:03.083Z,997.61
2018-06-21T04:12:03.085Z,997.59
2018-06-21T04:13:03.091Z,997.59
2018-06-21T04:14:03.088Z,997.56
2018-06-21T04:15:03.091Z,997.58
2018-06-21T04:16:03.095Z,997.61
2018-06-21T04:17:03.095Z,997.58
2018-06-21T04:18:03.103Z,997.57
2018-06-21T04:19:03.103Z,997.54
2018-06-21T04:20:03.104Z,997.54
2018-06-21T04:21:03.106Z,997.56
2018-06-21T04:22:03.111Z,997.51
2018-06-21T04:23:03.113Z,997.52
2018-06-21T04:24:03.114Z,997.54
2018-06-21T04:25:03.118Z,997.52
2018-06-21T04:26:03.120Z,997.52
2018-06-21T04:27:03.141Z,997.50
2018-06-21T04:28:03.130Z,997.49
2018-06-21T04:29:03.124Z,997.52
2018-06-21T04:30:03.128Z,997.51
2018-06-21T04:31:03.131Z,997.50
2018-06-21T04:32:03.245Z,997.50
2018-06-21T04:33:03.136Z,997.46
2018-06-21T04:34:03.145Z,997.47
2018-06-21T04:35:03.141Z,997.43
2018-06-21T04:36:03.146Z,997.41
2018-06-21T04:37:03.146Z,997.39
2018-06-21T04:38:03.148Z,997.40
2018-06-21T04:39:03.150Z,997.38
2018-06-21T04:40:03.155Z,997.38
2018-06-21T04:41:03.156Z,997.35
2018-06-21T04:42:03.161Z,997.34
2018-06-21T04:43:03.162Z,997.33
2018-06-21T04:44:03.165Z,997.32
2018-06-21T04:45:03.167Z,997.29
2018-06-21T04:46:03.170Z,997.27
2018-06-21T04:47:03.173Z,997.26
2018-06-21T04:48:03.174Z,997.25
2018-06-21T04:49:03.176Z,997.23
2018-06-21T04:50:03.179Z,997.23
2018-06-21T04:51:03.183Z,997.25
2018-06-21T04:52:03.187Z,997.24
2018-06-21T04:53:03.192Z,997.21
2018-06-21T04:54:03.191Z,997.22
2018-06-21T04:55:03.195Z,997.18
2018-06-21T04:56:03.219Z,997.19
2018-06-21T04:57:03.201Z,997.17
2018-06-21T04:58:03.206Z,997.15
2018-06-21T04:59:03.207Z,997.14
2018-06-21T05:00:03.223Z,997.13
2018-06-21T05:01:03.212Z,997.17
2018-06-21T05:02:03.237Z,997.18
2018-06-21T05:03:03.219Z,997.17
2018-06-21T05:04:03.222Z,997.18
2018-06-21T05:05:03.225Z,997.15
2018-06-21T05:06:03.231Z,997.13
2018-06-21T05:07:03.233Z,997.13
2018-06-21T05:08:03.235Z,997.12
2018-06-21T05:09:03.239Z,997.09
2018-06-21T05:10:03.240Z,997.10
2018-06-21T05:11:03.255Z,997.09
2018-06-21T05:12:03.247Z,997.07
2018-06-21T05:13:03.254Z,997.06
2018-06-21T05:14:03.259Z,997.04
2018-06-21T05:15:03.259Z,997.05
2018-06-21T05:16:03.262Z,997.05
2018-06-21T05:17:03.265Z,996.98
2018-06-21T05:18:03.269Z,997.05
2018-06-21T05:19:03.273Z,997.01
2018-06-21T05:20:03.279Z,996.97
2018-06-21T05:21:03.279Z,996.98
2018-06-21T05:22:03.282Z,996.95
2018-06-21T05:23:03.300Z,996.95
2018-06-21T05:24:03.292Z,996.91
2018-06-21T05:25:03.313Z,996.87
2018-06-21T05:26:03.291Z,996.84
2018-06-21T05:27:03.294Z,996.85
2018-06-21T05:28:03.302Z,996.84
2018-06-21T05:29:03.301Z,996.85
2018-06-21T05:30:03.307Z,996.80
2018-06-21T05:31:03.316Z,996.81
2018-06-21T05:32:03.329Z,996.79
2018-06-21T05:33:03.320Z,996.76
2018-06-21T05:34:03.332Z,996.76
2018-06-21T05:35:03.328Z,996.71
2018-06-21T05:36:03.335Z,996.73
2018-06-21T05:37:03.336Z,996.72
2018-06-21T05:38:03.342Z,996.74
2018-06-21T05:39:03.353Z,996.70
2018-06-21T05:40:03.355Z,996.71
2018-06-21T05:41:03.359Z,996.70
2018-06-21T05:42:03.365Z,996.71
2018-06-21T05:43:03.367Z,996.65
2018-06-21T05:44:03.373Z,996.67
2018-06-21T05:45:03.386Z,996.62
2018-06-21T05:46:03.382Z,996.64
2018-06-21T05:47:03.388Z,996.62
2018-06-21T05:48:03.393Z,996.57
2018-06-21T05:49:03.398Z,996.60
2018-06-21T05:50:03.404Z,996.57
2018-06-21T05:51:03.431Z,996.55
2018-06-21T05:52:03.595Z,996.58
2018-06-21T05:53:03.417Z,996.49
2018-06-21T05:54:03.423Z,996.49
2018-06-21T05:55:03.427Z,996.50
2018-06-21T05:56:03.434Z,996.48
2018-06-21T05:57:03.440Z,996.44
2018-06-21T05:58:03.442Z,996.45
2018-06-21T05:59:03.447Z,996.46
2018-06-21T06:00:03.452Z,996.45
2018-06-21T06:01:03.469Z,996.42
2018-06-21T06:02:03.481Z,996.37
2018-06-21T06:03:03.467Z,996.33
2018-06-21T06:04:03.471Z,996.31
2018-06-21T06:05:03.478Z,996.30
2018-06-21T06:06:03.483Z,996.30
2018-06-21T06:07:03.489Z,996.24
2018-06-21T06:08:03.491Z,996.22
2018-06-21T06:09:03.496Z,996.20
2018-06-21T06:10:03.513Z,996.23
2018-06-21T06:11:03.507Z,996.22
2018-06-21T06:12:03.517Z,996.19
2018-06-21T06:13:03.544Z,996.15
2018-06-21T06:14:03.528Z,996.11
2018-06-21T06:15:03.526Z,996.13
2018-06-21T06:16:03.532Z,996.10
2018-06-21T06:17:03.536Z,996.07
2018-06-21T06:18:03.542Z,996.06
2018-06-21T06:19:03.551Z,996.07
2018-06-21T06:20:03.623Z,996.06
2018-06-21T06:21:03.557Z,996.05
2018-06-21T06:22:03.562Z,996.02
2018-06-21T06:23:03.568Z,996.03
2018-06-21T06:24:03.573Z,996.01
2018-06-21T06:25:03.580Z,996.01
2018-06-21T06:26:03.583Z,995.95
2018-06-21T06:27:03.589Z,995.96
2018-06-21T06:28:03.595Z,995.91
2018-06-21T06:29:03.599Z,995.89
2018-06-21T06:30:03.606Z,995.88
2018-06-21T06:31:03.609Z,995.82
2018-06-21T06:32:03.617Z,995.82
2018-06-21T06:33:03.622Z,995.82
2018-06-21T06:34:03.635Z,995.81
2018-06-21T06:35:03.634Z,995.81
2018-06-21T06:36:03.638Z,995.75
2018-06-21T06:37:03.641Z,995.75
2018-06-21T06:38:03.646Z,995.78
2018-06-21T06:39:03.652Z,995.73
2018-06-21T06:40:03.657Z,995.70
2018-06-21T06:41:03.662Z,995.71
2018-06-21T06:42:03.666Z,995.72
2018-06-21T06:43:03.673Z,995.71
2018-06-21T06:44:03.677Z,995.67
2018-06-21T06:45:03.682Z,995.68
2018-06-21T06:46:03.690Z,995.62
2018-06-21T06:47:03.693Z,995.58
2018-06-21T06:48:03.700Z,995.63
2018-06-21T06:49:03.703Z,995.55
2018-06-21T06:50:03.708Z,995.50
2018-06-21T06:51:03.720Z,995.50
2018-06-21T06:52:03.718Z,995.49
2018-06-21T06:53:03.723Z,995.50
2018-06-21T06:54:03.738Z,995.49
2018-06-21T06:55:03.744Z,995.44
2018-06-21T06:56:03.744Z,995.45
2018-06-21T06:57:03.743Z,995.45
2018-06-21T06:58:03.748Z,995.44
2018-06-21T06:59:03.825Z,995.41
2018-06-21T07:00:03.761Z,995.37
2018-06-21T07:01:03.769Z,995.38
2018-06-21T07:02:03.769Z,995.39
2018-06-21T07:03:03.778Z,995.39
2018-06-21T07:04:03.781Z,995.37
2018-06-21T07:05:03.785Z,995.36
2018-06-21T07:06:03.798Z,995.33
2018-06-21T07:07:03.796Z,995.35
2018-06-21T07:08:03.832Z,995.35
2018-06-21T07:09:03.806Z,995.32
2018-06-21T07:10:03.812Z,995.31
2018-06-21T07:11:03.821Z,995.27
2018-06-21T07:12:03.822Z,995.28
2018-06-21T07:13:03.825Z,995.26
2018-06-21T07:14:03.863Z,995.20
2018-06-21T07:15:03.837Z,995.20
2018-06-21T07:16:03.842Z,995.16
2018-06-21T07:17:03.851Z,995.16
2018-06-21T07:18:03.854Z,995.18
2018-06-21T07:19:03.861Z,995.17
2018-06-21T07:20:03.867Z,995.11
2018-06-21T07:21:03.868Z,995.17
2018-06-21T07:22:03.877Z,995.10
2018-06-21T07:23:03.880Z,995.17
2018-06-21T07:24:03.890Z,995.06
2018-06-21T07:25:03.892Z,995.04
2018-06-21T07:26:03.894Z,994.93
2018-06-21T07:27:03.960Z,994.94
2018-06-21T07:28:03.906Z,995.01
2018-06-21T07:29:03.910Z,994.93
2018-06-21T07:30:03.915Z,994.99
2018-06-21T07:31:03.929Z,995.08
2018-06-21T07:32:03.935Z,994.91
2018-06-21T07:33:03.931Z,994.91
2018-06-21T07:34:03.946Z,994.87
2018-06-21T07:35:03.944Z,994.94
2018-06-21T07:36:03.950Z,994.89
2018-06-21T07:37:03.955Z,994.87
2018-06-21T07:38:03.961Z,994.90
2018-06-21T07:39:04.011Z,994.85
2018-06-21T07:40:03.977Z,994.83
2018-06-21T07:41:03.976Z,994.83
2018-06-21T07:42:03.985Z,994.85
2018-06-21T07:43:03.986Z,994.83
2018-06-21T07:44:03.997Z,994.88
2018-06-21T07:45:03.998Z,994.81
2018-06-21T07:46:04.011Z,994.87
2018-06-21T07:47:04.011Z,994.79
2018-06-21T07:48:04.017Z,994.82
2018-06-21T07:49:04.033Z,994.79
2018-06-21T07:50:04.031Z,994.76
2018-06-21T07:51:04.048Z,994.73
2018-06-21T07:52:04.039Z,994.71
2018-06-21T07:53:04.044Z,994.80
2018-06-21T07:54:04.055Z,994.69
2018-06-21T07:55:04.056Z,994.62
2018-06-21T07:56:04.067Z,994.75
2018-06-21T07:57:04.079Z,994.73
2018-06-21T07:58:04.084Z,994.76
2018-06-21T07:59:04.128Z,994.74
2018-06-21T08:00:04.085Z,994.75
2018-06-21T08:01:04.090Z,994.73
2018-06-21T08:02:04.095Z,994.76
2018-06-21T08:03:04.104Z,994.74
2018-06-21T08:04:04.114Z,994.74
2018-06-21T08:05:04.169Z,994.73
2018-06-21T08:06:04.120Z,994.66
2018-06-21T08:07:04.140Z,994.67
2018-06-21T08:08:04.510Z,994.63
2018-06-21T08:09:04.139Z,994.71
2018-06-21T08:10:04.147Z,994.71
2018-06-21T08:11:04.149Z,994.66
2018-06-21T08:12:04.156Z,994.68
2018-06-21T08:13:04.162Z,994.65
2018-06-21T08:14:04.167Z,994.61
2018-06-21T08:15:04.238Z,994.65
2018-06-21T08:16:04.181Z,994.67
2018-06-21T08:17:04.184Z,994.65
2018-06-21T08:18:04.191Z,994.59
2018-06-21T08:19:04.197Z,994.56
2018-06-21T08:20:04.203Z,994.56
2018-06-21T08:21:04.210Z,994.61
2018-06-21T08:22:04.214Z,994.57
2018-06-21T08:23:04.225Z,994.57
2018-06-21T08:24:04.229Z,994.58
2018-06-21T08:25:04.237Z,994.61
2018-06-21T08:26:04.239Z,994.54
2018-06-21T08:27:04.245Z,994.58
2018-06-21T08:28:04.250Z,994.54
2018-06-21T08:29:04.257Z,994.49
2018-06-21T08:30:04.263Z,994.55
2018-06-21T08:31:04.269Z,994.51
2018-06-21T08:32:04.276Z,994.56
2018-06-21T08:33:04.280Z,994.57
2018-06-21T08:34:04.287Z,994.64
2018-06-21T08:35:04.293Z,994.58
2018-06-21T08:36:04.300Z,994.61
2018-06-21T08:37:04.314Z,994.60
2018-06-21T08:38:04.313Z,994.67
2018-06-21T08:39:04.388Z,994.64
2018-06-21T08:40:04.341Z,994.63
2018-06-21T08:41:04.332Z,994.63
2018-06-21T08:42:04.341Z,994.61
2018-06-21T08:43:04.348Z,994.62
2018-06-21T08:44:04.357Z,994.61
2018-06-21T08:45:04.365Z,994.61
2018-06-21T08:46:04.386Z,994.60
2018-06-21T08:47:04.378Z,994.66
2018-06-21T08:48:04.385Z,994.69
2018-06-21T08:49:04.394Z,994.66
2018-06-21T08:50:04.407Z,994.72
2018-06-21T08:51:04.410Z,994.70
2018-06-21T08:52:04.429Z,994.70
2018-06-21T08:53:04.422Z,994.65
2018-06-21T08:54:04.434Z,994.70
2018-06-21T08:55:04.441Z,994.70
2018-06-21T08:56:04.450Z,994.79
2018-06-21T08:57:04.457Z,994.83
2018-06-21T08:58:04.464Z,994.81
2018-06-21T08:59:04.496Z,994.88
2018-06-21T09:00:04.489Z,994.79
2018-06-21T09:01:04.494Z,994.84
2018-06-21T09:02:04.498Z,994.82
2018-06-21T09:03:04.506Z,994.82
2018-06-21T09:04:04.523Z,994.81
2018-06-21T09:05:04.523Z,994.89
2018-06-21T09:06:04.532Z,994.86
2018-06-21T09:07:04.541Z,994.84
2018-06-21T09:08:04.549Z,994.95
2018-06-21T09:09:04.559Z,994.77
2018-06-21T09:10:04.569Z,994.82
2018-06-21T09:11:04.578Z,994.82
2018-06-21T09:12:04.587Z,994.89
2018-06-21T09:13:04.598Z,994.90
2018-06-21T09:14:04.613Z,994.80
2018-06-21T09:15:04.616Z,994.85
2018-06-21T09:16:04.624Z,994.89
2018-06-21T09:17:04.640Z,994.82
2018-06-21T09:18:04.643Z,994.92
2018-06-21T09:19:04.660Z,994.86
2018-06-21T09:20:04.660Z,994.79
2018-06-21T09:21:04.679Z,994.90
2018-06-21T09:22:04.683Z,994.88
2018-06-21T09:23:04.696Z,994.87
2018-06-21T09:24:04.702Z,994.80
2018-06-21T09:25:04.709Z,994.81
2018-06-21T09:26:04.719Z,994.78
2018-06-21T09:27:04.736Z,994.80
2018-06-21T09:28:04.741Z,994.78
2018-06-21T09:29:04.751Z,994.82
2018-06-21T09:30:04.762Z,994.82
2018-06-21T09:31:04.774Z,994.96
2018-06-21T09:32:04.790Z,994.97
2018-06-21T09:33:04.797Z,994.94
2018-06-21T09:34:04.803Z,994.91
2018-06-21T09:35:04.816Z,994.87
2018-06-21T09:36:04.827Z,994.86
2018-06-21T09:37:04.832Z,994.80
2018-06-21T09:38:04.847Z,994.71
2018-06-21T09:39:04.861Z,994.77
2018-06-21T09:40:04.862Z,994.72
2018-06-21T09:41:04.872Z,994.76
2018-06-21T09:42:04.890Z,994.72
2018-06-21T09:43:04.897Z,994.81
2018-06-21T09:44:04.904Z,994.90
2018-06-21T09:45:04.911Z,994.79
2018-06-21T09:46:04.926Z,994.83
2018-06-21T09:47:04.971Z,994.89
2018-06-21T09:48:04.939Z,994.83
2018-06-21T09:49:04.954Z,994.83
2018-06-21T09:50:04.958Z,994.87
2018-06-21T09:51:04.969Z,994.87
2018-06-21T09:52:04.984Z,994.83
2018-06-21T09:53:04.982Z,994.88
2018-06-21T09:54:04.993Z,994.92
2018-06-21T09:55:05.005Z,994.94
2018-06-21T09:56:05.011Z,995.00
2018-06-21T09:57:05.019Z,994.95
2018-06-21T09:58:05.050Z,994.97
2018-06-21T09:59:05.037Z,994.89
2018-06-21T10:00:05.054Z,994.97
2018-06-21T10:01:05.056Z,995.05
2018-06-21T10:02:05.067Z,994.95
2018-06-21T10:03:05.072Z,994.88
2018-06-21T10:04:05.093Z,994.95
2018-06-21T10:05:05.090Z,994.93
2018-06-21T10:06:05.099Z,995.01
2018-06-21T10:07:05.117Z,994.97
2018-06-21T10:08:05.117Z,994.93
2018-06-21T10:09:05.127Z,994.95
2018-06-21T10:10:05.134Z,994.95
2018-06-21T10:11:05.144Z,995.04
2018-06-21T10:12:05.153Z,994.92
2018-06-21T10:13:05.315Z,994.89
2018-06-21T10:14:05.171Z,994.80
2018-06-21T10:15:05.181Z,994.83
2018-06-21T10:16:05.189Z,994.87
2018-06-21T10:17:05.198Z,994.91
2018-06-21T10:18:05.209Z,994.86
2018-06-21T10:19:05.217Z,994.95
2018-06-21T10:20:05.226Z,994.87
2018-06-21T10:21:05.233Z,994.93
2018-06-21T10:22:05.244Z,994.98
2018-06-21T10:23:05.430Z,994.95
2018-06-21T10:24:05.269Z,994.95
2018-06-21T10:25:05.272Z,994.85
2018-06-21T10:26:05.280Z,994.87
2018-06-21T10:27:05.287Z,994.87
2018-06-21T10:28:05.298Z,994.99
2018-06-21T10:29:05.307Z,994.95
2018-06-21T10:30:05.329Z,994.94
2018-06-21T10:31:05.342Z,995.05
2018-06-21T10:32:05.337Z,995.00
2018-06-21T10:33:05.349Z,995.18
2018-06-21T10:34:05.366Z,995.28
2018-06-21T10:35:05.399Z,995.13
2018-06-21T10:36:05.381Z,995.11
2018-06-21T10:37:05.387Z,995.19
2018-06-21T10:38:05.397Z,995.08
2018-06-21T10:39:05.423Z,995.14
2018-06-21T10:40:05.420Z,995.13
2018-06-21T10:41:05.430Z,995.16
2018-06-21T10:42:05.442Z,995.10
2018-06-21T10:43:05.457Z,995.14
2018-06-21T10:44:05.466Z,995.14
2018-06-21T10:45:05.478Z,995.23
2018-06-21T10:46:05.488Z,995.35
2018-06-21T10:47:05.549Z,995.24
2018-06-21T10:48:05.513Z,995.13
2018-06-21T10:49:05.583Z,995.23
2018-06-21T10:50:05.537Z,995.21
2018-06-21T10:51:05.548Z,995.19
2018-06-21T10:52:05.555Z,995.34
2018-06-21T10:53:05.570Z,995.38
2018-06-21T10:54:05.611Z,995.40
2018-06-21T10:55:05.599Z,995.39
2018-06-21T10:56:05.604Z,995.49
2018-06-21T10:57:05.647Z,995.43
2018-06-21T10:58:05.637Z,995.34
2018-06-21T10:59:05.645Z,995.42
2018-06-21T11:00:05.664Z,995.46
2018-06-21T11:01:05.670Z,995.28
2018-06-21T11:02:05.683Z,995.27
2018-06-21T11:03:05.698Z,995.33
2018-06-21T11:04:05.810Z,995.31
2018-06-21T11:05:05.721Z,995.32
2018-06-21T11:06:05.735Z,995.41
2018-06-21T11:07:05.747Z,995.31
2018-06-21T11:08:05.754Z,995.29
2018-06-21T11:09:05.764Z,995.41
2018-06-21T11:10:05.778Z,995.43
2018-06-21T11:11:05.789Z,995.43
2018-06-21T11:12:05.804Z,995.71
2018-06-21T11:13:05.821Z,995.38
2018-06-21T11:14:05.829Z,995.40
2018-06-21T11:15:05.841Z,995.41
2018-06-21T11:16:05.847Z,995.48
2018-06-21T11:17:05.888Z,995.49
2018-06-21T11:18:05.910Z,995.63
2018-06-21T11:19:05.877Z,995.58
2018-06-21T11:20:05.892Z,996.09
2018-06-21T11:21:05.900Z,996.77
2018-06-21T11:22:05.910Z,996.78
2018-06-21T11:23:05.923Z,996.94
2018-06-21T11:24:05.931Z,997.01
2018-06-21T11:25:05.939Z,997.04
2018-06-21T11:26:05.954Z,997.07
2018-06-21T11:27:06.164Z,997.35
2018-06-21T11:28:06.028Z,997.39
2018-06-21T11:29:05.984Z,997.41
2018-06-21T11:30:05.986Z,997.58
2018-06-21T11:31:06.003Z,997.50
2018-06-21T11:32:06.004Z,997.58
2018-06-21T11:33:06.084Z,997.42
2018-06-21T11:34:06.020Z,997.71
2018-06-21T11:35:06.039Z,997.63
2018-06-21T11:36:06.037Z,997.71
2018-06-21T11:37:06.045Z,997.70
2018-06-21T11:38:06.111Z,997.83
2018-06-21T11:39:06.060Z,997.58
2018-06-21T11:40:06.076Z,997.66
2018-06-21T11:41:06.073Z,997.85
2018-06-21T11:42:06.089Z,997.89
2018-06-21T11:43:06.089Z,997.69
2018-06-21T11:44:06.097Z,997.76
2018-06-21T11:45:06.102Z,997.70
2018-06-21T11:46:06.111Z,997.82
2018-06-21T11:47:06.124Z,997.68
2018-06-21T11:48:06.128Z,997.61
2018-06-21T11:49:06.139Z,997.81
2018-06-21T11:50:06.294Z,997.80
2018-06-21T11:51:06.150Z,997.91
2018-06-21T11:52:06.177Z,997.86
2018-06-21T11:53:06.164Z,997.77
2018-06-21T11:54:06.177Z,997.80
2018-06-21T11:55:06.179Z,997.76
2018-06-21T11:56:06.188Z,997.78
2018-06-21T11:57:06.193Z,997.86
2018-06-21T11:58:06.205Z,997.96
2018-06-21T11:59:06.208Z,998.04
2018-06-21T12:00:06.214Z,998.02
2018-06-21T12:01:06.227Z,998.02
2018-06-21T12:02:06.241Z,998.02
2018-06-21T12:03:06.238Z,998.12
2018-06-21T12:04:06.245Z,998.14
2018-06-21T12:05:06.249Z,997.99
2018-06-21T12:06:06.357Z,997.99
2018-06-21T12:07:06.262Z,998.06
2018-06-21T12:08:06.268Z,998.05
2018-06-21T12:09:06.274Z,998.27
2018-06-21T12:10:06.284Z,998.23
2018-06-21T12:11:06.304Z,998.07
2018-06-21T12:12:06.295Z,998.03
2018-06-21T12:13:06.300Z,998.17
2018-06-21T12:14:06.310Z,998.19
2018-06-21T12:15:06.311Z,998.26
2018-06-21T12:16:06.320Z,998.28
2018-06-21T12:17:06.323Z,998.20
2018-06-21T12:18:06.329Z,998.17
2018-06-21T12:19:06.338Z,998.19
2018-06-21T12:20:06.342Z,998.09
2018-06-21T12:21:06.349Z,998.12
2018-06-21T12:22:06.371Z,998.18
2018-06-21T12:23:06.360Z,998.25
2018-06-21T12:24:06.365Z,998.25
2018-06-21T12:25:06.372Z,998.27
2018-06-21T12:26:06.494Z,998.36
2018-06-21T12:27:06.386Z,998.36
2018-06-21T12:28:06.395Z,998.43